Airfield :
LOGIN :

Register | Disclaimer

   EN    FR    IT 

 










Legend :    VFR   Marginal VFR   IFR   Intensive IFR   Very Intensive IFR
Visi :
Ceiling :
>= 8 km
>= 3000ft
5 to 8 km
1000 to 3000 ft
1500m to 5 km
500 to 1000 ft
800 to 1500m
200 to 500 ft
< 800m
< 200 ft
Symbols :   Thunderstorms  Fog  Heavy snow  Heavy precipitations  Wind > 20 kt
SIGMETs :     Misc.  Thunderstorms  Icing  Turbulence  Mountain Waves  Volcanic Ashes







- Airport Elevation : 256 ft
- IATA code : KUN


EYKA - Kaunas

CURRENT METAR :
  • 170420Z 22009KT 180V250 4500 -RA BR OVC005 03/02 Q0994 R08/29//95

EXPIRED METARs :
  • 170350Z 22010KT 170V260 4600 -DZ BR OVC005 03/02 Q0994 R08/29//95
  • 170320Z 21014KT 4200 -DZ BR OVC006 03/02 Q0995 R08/29//95
  • 170250Z 22014KT 4300 -DZ BR OVC006 03/02 Q0995
  • 170220Z 22012KT 6000 OVC008 03/02 Q0995
  • 170150Z 22012KT 190V250 6000 OVC007 03/02 Q0996

TAF TAF EYKA
Valid from the 17 at 00:00 until the 18 at 00:00 UTC


162303Z 1700/1724 20014G24KT 5000 RA BR OVC010
TEMPO 1700/1712 3000 RASN OVC003
BECMG 1716/1718 8000 BKN020
No reported NOTAMs for that airfield.



MET'MAP, your aeronautical weather chart ! - Copyright ORBIFLY December 2007 - Disclaimer

ORBIFLY MET'MAP TEAM :

Programming & Development : Alexandra Zaïnal
Concept & Development : Baudouin d'Aumeries
Co-Development & Prog : Marc-Olivier Méhu
Technical & hardware support : Manuel Goepfert

Contact : metmap@orbifly.com




SOURCES & CREDITS :

   NOAA